sensor_id;sensor_type;location;lat;lon;timestamp;temperature;humidity
8711;DHT22;4392;47.400;8.062;2023-12-29T00:00:45;8.50;99.90
8711;DHT22;4392;47.400;8.062;2023-12-29T00:03:11;8.50;99.90
8711;DHT22;4392;47.400;8.062;2023-12-29T00:05:37;8.60;99.90
8711;DHT22;4392;47.400;8.062;2023-12-29T00:08:02;8.50;99.90
8711;DHT22;4392;47.400;8.062;2023-12-29T00:10:28;8.50;99.90
8711;DHT22;4392;47.400;8.062;2023-12-29T00:12:53;8.70;99.90
8711;DHT22;4392;47.400;8.062;2023-12-29T00:15:19;9.50;99.90
8711;DHT22;4392;47.400;8.062;2023-12-29T00:17:47;10.90;99.90
8711;DHT22;4392;47.400;8.062;2023-12-29T00:20:13;10.20;99.90
8711;DHT22;4392;47.400;8.062;2023-12-29T00:22:39;9.60;99.90
8711;DHT22;4392;47.400;8.062;2023-12-29T00:25:05;9.20;99.90
8711;DHT22;4392;47.400;8.062;2023-12-29T00:27:31;9.00;99.90
8711;DHT22;4392;47.400;8.062;2023-12-29T00:29:56;8.80;99.90
8711;DHT22;4392;47.400;8.062;2023-12-29T00:32:22;8.80;99.90
8711;DHT22;4392;47.400;8.062;2023-12-29T00:34:47;8.80;99.90
8711;DHT22;4392;47.400;8.062;2023-12-29T00:37:13;8.80;99.90
8711;DHT22;4392;47.400;8.062;2023-12-29T00:39:38;8.70;99.90
8711;DHT22;4392;47.400;8.062;2023-12-29T00:42:05;8.60;99.90
8711;DHT22;4392;47.400;8.062;2023-12-29T00:44:31;8.60;99.90
8711;DHT22;4392;47.400;8.062;2023-12-29T00:46:57;8.50;99.90
8711;DHT22;4392;47.400;8.062;2023-12-29T00:49:23;8.50;99.90
8711;DHT22;4392;47.400;8.062;2023-12-29T00:51:49;8.50;99.90
8711;DHT22;4392;47.400;8.062;2023-12-29T00:54:14;8.50;99.90
8711;DHT22;4392;47.400;8.062;2023-12-29T00:56:40;8.50;99.90
8711;DHT22;4392;47.400;8.062;2023-12-29T00:59:06;8.50;99.90
8711;DHT22;4392;47.400;8.062;2023-12-29T01:01:35;8.50;99.90
8711;DHT22;4392;47.400;8.062;2023-12-29T01:04:01;8.50;99.90
8711;DHT22;4392;47.400;8.062;2023-12-29T01:06:27;8.50;99.90
8711;DHT22;4392;47.400;8.062;2023-12-29T01:08:53;8.40;99.90
8711;DHT22;4392;47.400;8.062;2023-12-29T01:11:18;8.40;99.90
8711;DHT22;4392;47.400;8.062;2023-12-29T01:13:44;8.40;99.90
8711;DHT22;4392;47.400;8.062;2023-12-29T01:16:09;8.40;99.90
8711;DHT22;4392;47.400;8.062;2023-12-29T01:18:35;8.50;99.90
8711;DHT22;4392;47.400;8.062;2023-12-29T01:21:01;9.30;99.90
8711;DHT22;4392;47.400;8.062;2023-12-29T01:23:27;11.10;99.90
8711;DHT22;4392;47.400;8.062;2023-12-29T01:25:52;11.40;99.90
8711;DHT22;4392;47.400;8.062;2023-12-29T01:28:18;10.60;99.90
8711;DHT22;4392;47.400;8.062;2023-12-29T01:30:46;10.20;99.90
8711;DHT22;4392;47.400;8.062;2023-12-29T01:33:11;10.10;99.90
8711;DHT22;4392;47.400;8.062;2023-12-29T01:35:39;10.00;99.90
8711;DHT22;4392;47.400;8.062;2023-12-29T01:38:04;9.60;99.90
8711;DHT22;4392;47.400;8.062;2023-12-29T01:40:30;9.40;99.90
8711;DHT22;4392;47.400;8.062;2023-12-29T01:42:56;10.70;99.90
8711;DHT22;4392;47.400;8.062;2023-12-29T01:45:23;11.80;99.90
8711;DHT22;4392;47.400;8.062;2023-12-29T01:47:50;12.30;99.90
8711;DHT22;4392;47.400;8.062;2023-12-29T01:50:21;12.70;99.90
8711;DHT22;4392;47.400;8.062;2023-12-29T01:52:48;12.10;96.70
8711;DHT22;4392;47.400;8.062;2023-12-29T01:55:20;10.90;99.90
8711;DHT22;4392;47.400;8.062;2023-12-29T01:57:48;11.50;99.90
8711;DHT22;4392;47.400;8.062;2023-12-29T02:00:16;10.70;99.90
8711;DHT22;4392;47.400;8.062;2023-12-29T02:02:42;10.10;99.90
8711;DHT22;4392;47.400;8.062;2023-12-29T02:05:09;9.80;99.90
8711;DHT22;4392;47.400;8.062;2023-12-29T02:07:38;9.60;99.90
8711;DHT22;4392;47.400;8.062;2023-12-29T02:10:06;9.50;99.90
8711;DHT22;4392;47.400;8.062;2023-12-29T02:12:33;9.40;99.90
8711;DHT22;4392;47.400;8.062;2023-12-29T02:15:03;9.50;99.90
8711;DHT22;4392;47.400;8.062;2023-12-29T02:17:45;9.50;99.90
8711;DHT22;4392;47.400;8.062;2023-12-29T02:20:11;9.50;99.90
8711;DHT22;4392;47.400;8.062;2023-12-29T02:22:39;9.30;99.90
8711;DHT22;4392;47.400;8.062;2023-12-29T02:25:08;9.20;99.90
8711;DHT22;4392;47.400;8.062;2023-12-29T02:27:54;9.00;99.90
8711;DHT22;4392;47.400;8.062;2023-12-29T02:30:29;10.70;99.90
8711;DHT22;4392;47.400;8.062;2023-12-29T02:32:59;10.60;99.90
8711;DHT22;4392;47.400;8.062;2023-12-29T02:35:28;10.40;99.90
8711;DHT22;4392;47.400;8.062;2023-12-29T02:37:56;10.30;99.90
8711;DHT22;4392;47.400;8.062;2023-12-29T02:40:22;11.20;99.90
8711;DHT22;4392;47.400;8.062;2023-12-29T02:42:48;11.30;99.90
8711;DHT22;4392;47.400;8.062;2023-12-29T02:45:17;10.30;99.90
8711;DHT22;4392;47.400;8.062;2023-12-29T02:47:43;9.70;99.90
8711;DHT22;4392;47.400;8.062;2023-12-29T02:50:10;9.50;99.90
8711;DHT22;4392;47.400;8.062;2023-12-29T02:52:36;9.40;99.90
8711;DHT22;4392;47.400;8.062;2023-12-29T02:55:01;9.30;99.90
8711;DHT22;4392;47.400;8.062;2023-12-29T02:57:27;9.20;99.90
8711;DHT22;4392;47.400;8.062;2023-12-29T02:59:52;9.00;99.90
8711;DHT22;4392;47.400;8.062;2023-12-29T03:02:18;9.00;99.90
8711;DHT22;4392;47.400;8.062;2023-12-29T03:04:44;9.00;99.90
8711;DHT22;4392;47.400;8.062;2023-12-29T03:07:10;8.90;99.90
8711;DHT22;4392;47.400;8.062;2023-12-29T03:09:36;8.80;99.90
8711;DHT22;4392;47.400;8.062;2023-12-29T03:12:02;8.80;99.90
8711;DHT22;4392;47.400;8.062;2023-12-29T03:14:27;8.80;99.90
8711;DHT22;4392;47.400;8.062;2023-12-29T03:16:53;8.70;99.90
8711;DHT22;4392;47.400;8.062;2023-12-29T03:19:19;8.70;99.90
8711;DHT22;4392;47.400;8.062;2023-12-29T03:21:44;8.70;99.90
8711;DHT22;4392;47.400;8.062;2023-12-29T03:24:10;8.70;99.90
8711;DHT22;4392;47.400;8.062;2023-12-29T03:26:35;8.60;99.90
8711;DHT22;4392;47.400;8.062;2023-12-29T03:29:01;8.60;99.90
8711;DHT22;4392;47.400;8.062;2023-12-29T03:31:27;8.60;99.90
8711;DHT22;4392;47.400;8.062;2023-12-29T03:33:52;8.70;99.90
8711;DHT22;4392;47.400;8.062;2023-12-29T03:36:18;8.60;99.90
8711;DHT22;4392;47.400;8.062;2023-12-29T03:38:44;8.60;99.90
8711;DHT22;4392;47.400;8.062;2023-12-29T03:41:09;8.60;99.90
8711;DHT22;4392;47.400;8.062;2023-12-29T03:43:35;8.50;99.90
8711;DHT22;4392;47.400;8.062;2023-12-29T03:46:00;8.50;99.90
8711;DHT22;4392;47.400;8.062;2023-12-29T03:48:26;8.50;99.90
8711;DHT22;4392;47.400;8.062;2023-12-29T03:50:56;8.50;99.90
8711;DHT22;4392;47.400;8.062;2023-12-29T03:53:22;8.50;99.90
8711;DHT22;4392;47.400;8.062;2023-12-29T03:55:47;8.50;99.90
8711;DHT22;4392;47.400;8.062;2023-12-29T03:58:13;8.50;99.90
8711;DHT22;4392;47.400;8.062;2023-12-29T04:00:39;8.50;99.90
8711;DHT22;4392;47.400;8.062;2023-12-29T04:03:09;8.50;99.90
8711;DHT22;4392;47.400;8.062;2023-12-29T04:05:35;8.50;99.90
8711;DHT22;4392;47.400;8.062;2023-12-29T04:08:00;8.50;99.90
8711;DHT22;4392;47.400;8.062;2023-12-29T04:10:26;8.50;99.90
8711;DHT22;4392;47.400;8.062;2023-12-29T04:12:52;8.50;99.90
8711;DHT22;4392;47.400;8.062;2023-12-29T04:15:17;8.60;99.90
8711;DHT22;4392;47.400;8.062;2023-12-29T04:17:43;8.60;99.90
8711;DHT22;4392;47.400;8.062;2023-12-29T04:20:09;8.60;99.90
8711;DHT22;4392;47.400;8.062;2023-12-29T04:22:35;8.60;99.90
8711;DHT22;4392;47.400;8.062;2023-12-29T04:25:01;8.60;99.90
8711;DHT22;4392;47.400;8.062;2023-12-29T04:27:26;8.60;99.90
8711;DHT22;4392;47.400;8.062;2023-12-29T04:29:52;8.60;99.90
8711;DHT22;4392;47.400;8.062;2023-12-29T04:32:17;8.50;99.90
8711;DHT22;4392;47.400;8.062;2023-12-29T04:34:45;8.50;99.90
8711;DHT22;4392;47.400;8.062;2023-12-29T04:37:11;8.50;99.90
8711;DHT22;4392;47.400;8.062;2023-12-29T04:39:37;8.50;99.90
8711;DHT22;4392;47.400;8.062;2023-12-29T04:42:03;8.50;99.90
8711;DHT22;4392;47.400;8.062;2023-12-29T04:44:28;8.50;99.90
8711;DHT22;4392;47.400;8.062;2023-12-29T04:46:54;8.50;99.90
8711;DHT22;4392;47.400;8.062;2023-12-29T04:49:20;8.50;99.90
8711;DHT22;4392;47.400;8.062;2023-12-29T04:51:47;8.50;99.90
8711;DHT22;4392;47.400;8.062;2023-12-29T04:54:14;8.60;99.90
8711;DHT22;4392;47.400;8.062;2023-12-29T04:56:39;8.50;99.90
8711;DHT22;4392;47.400;8.062;2023-12-29T04:59:05;8.50;99.90
8711;DHT22;4392;47.400;8.062;2023-12-29T05:01:33;8.50;99.90
8711;DHT22;4392;47.400;8.062;2023-12-29T05:03:58;8.50;99.90
8711;DHT22;4392;47.400;8.062;2023-12-29T05:06:24;8.40;99.90
8711;DHT22;4392;47.400;8.062;2023-12-29T05:08:50;8.40;99.90
8711;DHT22;4392;47.400;8.062;2023-12-29T05:11:15;8.40;99.90
8711;DHT22;4392;47.400;8.062;2023-12-29T05:13:41;8.40;99.90
8711;DHT22;4392;47.400;8.062;2023-12-29T05:16:09;8.30;99.90
8711;DHT22;4392;47.400;8.062;2023-12-29T05:18:34;8.30;99.90
8711;DHT22;4392;47.400;8.062;2023-12-29T05:21:00;8.30;99.90
8711;DHT22;4392;47.400;8.062;2023-12-29T05:23:26;8.30;99.90
8711;DHT22;4392;47.400;8.062;2023-12-29T05:25:52;8.30;99.90
8711;DHT22;4392;47.400;8.062;2023-12-29T05:28:17;8.30;99.90
8711;DHT22;4392;47.400;8.062;2023-12-29T05:30:43;8.40;99.90
8711;DHT22;4392;47.400;8.062;2023-12-29T05:33:09;8.40;99.90
8711;DHT22;4392;47.400;8.062;2023-12-29T05:35:34;8.40;99.90
8711;DHT22;4392;47.400;8.062;2023-12-29T05:38:00;8.40;99.90
8711;DHT22;4392;47.400;8.062;2023-12-29T05:40:26;8.50;99.90
8711;DHT22;4392;47.400;8.062;2023-12-29T05:42:51;8.50;99.90
8711;DHT22;4392;47.400;8.062;2023-12-29T05:45:17;8.50;99.90
8711;DHT22;4392;47.400;8.062;2023-12-29T05:47:43;8.50;99.90
8711;DHT22;4392;47.400;8.062;2023-12-29T05:50:09;8.40;99.90
8711;DHT22;4392;47.400;8.062;2023-12-29T05:52:34;8.50;99.90
8711;DHT22;4392;47.400;8.062;2023-12-29T05:55:00;8.50;99.90
8711;DHT22;4392;47.400;8.062;2023-12-29T05:57:25;8.60;99.90
8711;DHT22;4392;47.400;8.062;2023-12-29T05:59:52;8.60;99.90
8711;DHT22;4392;47.400;8.062;2023-12-29T06:02:17;8.60;99.90
8711;DHT22;4392;47.400;8.062;2023-12-29T06:04:43;8.60;99.90
8711;DHT22;4392;47.400;8.062;2023-12-29T06:07:11;8.60;99.90
8711;DHT22;4392;47.400;8.062;2023-12-29T06:09:37;8.70;99.90
8711;DHT22;4392;47.400;8.062;2023-12-29T06:12:03;8.70;99.90
8711;DHT22;4392;47.400;8.062;2023-12-29T06:14:28;8.70;99.90
8711;DHT22;4392;47.400;8.062;2023-12-29T06:16:54;8.70;99.90
8711;DHT22;4392;47.400;8.062;2023-12-29T06:19:19;8.70;99.90
8711;DHT22;4392;47.400;8.062;2023-12-29T06:21:48;8.70;99.90
8711;DHT22;4392;47.400;8.062;2023-12-29T06:24:13;8.70;99.90
8711;DHT22;4392;47.400;8.062;2023-12-29T06:26:39;8.70;99.90
8711;DHT22;4392;47.400;8.062;2023-12-29T06:29:09;8.70;99.90
8711;DHT22;4392;47.400;8.062;2023-12-29T06:31:35;8.60;99.90
8711;DHT22;4392;47.400;8.062;2023-12-29T06:34:01;8.60;99.90
8711;DHT22;4392;47.400;8.062;2023-12-29T06:36:27;8.70;99.90
8711;DHT22;4392;47.400;8.062;2023-12-29T06:38:53;10.60;99.90
8711;DHT22;4392;47.400;8.062;2023-12-29T06:41:19;10.70;99.90
8711;DHT22;4392;47.400;8.062;2023-12-29T06:43:45;10.10;99.90
8711;DHT22;4392;47.400;8.062;2023-12-29T06:46:13;9.70;99.90
8711;DHT22;4392;47.400;8.062;2023-12-29T06:48:39;9.50;99.90
8711;DHT22;4392;47.400;8.062;2023-12-29T06:51:05;9.40;99.90
8711;DHT22;4392;47.400;8.062;2023-12-29T06:53:31;9.20;99.90
8711;DHT22;4392;47.400;8.062;2023-12-29T19:11:03;13.50;99.90
